TimeMST,TemperatureF,Dew PointF,Humidity,Sea Level PressureIn,VisibilityMPH,Wind Direction,Wind SpeedMPH,Gust SpeedMPH,PrecipitationIn,Events,Conditions,WindDirDegrees,DateUTC
12:54 AM,37.0,23.0,57,30.12,10.0,West,9.2,-,N/A,,Clear,260,2012-11-04 06:54:00
1:54 AM,37.0,23.0,57,30.11,10.0,West,10.4,-,N/A,,Clear,260,2012-11-04 07:54:00
1:54 AM,39.0,21.9,50,30.10,10.0,WSW,13.8,-,N/A,,Clear,240,2012-11-04 08:54:00
2:54 AM,37.0,21.0,52,30.09,10.0,West,9.2,-,N/A,,Clear,270,2012-11-04 09:54:00
3:54 AM,34.0,19.9,56,30.11,10.0,West,10.4,-,N/A,,Clear,280,2012-11-04 10:54:00
4:54 AM,35.1,18.0,50,30.12,10.0,West,10.4,-,N/A,,Clear,280,2012-11-04 11:54:00
5:54 AM,35.1,16.0,46,30.15,10.0,WSW,13.8,-,N/A,,Clear,250,2012-11-04 12:54:00
6:54 AM,36.0,15.1,43,30.19,10.0,West,10.4,-,N/A,,Clear,270,2012-11-04 13:54:00
7:54 AM,44.1,15.1,31,30.17,10.0,West,10.4,-,N/A,,Clear,260,2012-11-04 14:54:00
8:54 AM,51.1,15.1,24,30.12,10.0,West,8.1,-,N/A,,Clear,270,2012-11-04 15:54:00
9:54 AM,61.0,12.9,15,30.09,10.0,SW,5.8,-,N/A,,Clear,220,2012-11-04 16:54:00
10:54 AM,64.0,12.9,14,30.09,10.0,SE,5.8,-,N/A,,Clear,130,2012-11-04 17:54:00
11:54 AM,66.9,10.0,11,30.06,10.0,Calm,Calm,-,N/A,,Clear,0,2012-11-04 18:54:00
12:54 PM,69.1,3.9,8,30.03,10.0,East,6.9,-,N/A,,Clear,90,2012-11-04 19:54:00
1:54 PM,69.1,5.0,8,30.01,10.0,Calm,Calm,-,N/A,,Clear,0,2012-11-04 20:54:00
2:54 PM,69.1,7.0,9,30.02,10.0,North,11.5,-,N/A,,Clear,350,2012-11-04 21:54:00
3:54 PM,66.0,12.9,13,30.06,10.0,NNE,11.5,-,N/A,,Clear,30,2012-11-04 22:54:00
4:54 PM,57.9,10.0,15,30.11,10.0,ESE,3.5,-,N/A,,Clear,120,2012-11-04 23:54:00
5:54 PM,55.9,9.0,15,30.14,10.0,South,3.5,-,N/A,,Clear,180,2012-11-05 00:54:00
6:54 PM,54.0,10.0,17,30.18,10.0,Calm,Calm,-,N/A,,Clear,0,2012-11-05 01:54:00
7:54 PM,45.0,10.0,24,30.21,10.0,NNW,8.1,-,N/A,,Clear,330,2012-11-05 02:54:00
8:54 PM,48.0,17.1,29,30.21,10.0,North,4.6,-,N/A,,Clear,360,2012-11-05 03:54:00
9:54 PM,39.0,14.0,36,30.22,10.0,West,5.8,-,N/A,,Clear,280,2012-11-05 04:54:00
10:54 PM,35.1,14.0,42,30.23,10.0,WNW,5.8,-,N/A,,Clear,300,2012-11-05 05:54:00